Time;durP1;ratioP1;P1;durP2;ratioP2;P2;SDS_P1;SDS_P2;PMS_P1;PMS_P2;Temp;Humidity;BMP_temperature;BMP_pressure;BME280_temperature;BME280_humidity;BME280_pressure;Samples;Min_cycle;Max_cycle;Signal;HPM_P1;HPM_P2
2022/09/29 00:01:03;;;;;;;7.97;4.93;;;16.00;90.00;;;;;;5018413;28;20239;-67
2022/09/29 00:03:30;;;;;;;8.90;5.17;;;16.00;90.10;;;;;;5020294;28;20219;-67
2022/09/29 00:05:57;;;;;;;11.50;5.07;;;16.00;90.20;;;;;;5016540;28;20573;-67
2022/09/29 00:08:27;;;;;;;9.33;4.27;;;15.90;90.20;;;;;;5020030;28;20200;-67
2022/09/29 00:10:54;;;;;;;10.60;4.63;;;15.90;90.10;;;;;;5017030;28;20203;-67
2022/09/29 00:13:22;;;;;;;12.43;5.77;;;15.90;90.20;;;;;;5021408;28;20199;-67
2022/09/29 00:16:00;;;;;;;6.97;4.13;;;15.90;90.30;;;;;;5021674;28;20199;-67
2022/09/29 00:18:29;;;;;;;10.63;5.40;;;15.90;90.40;;;;;;5014691;28;20223;-67
2022/09/29 00:21:04;;;;;;;14.73;5.80;;;15.90;90.30;;;;;;5020024;28;20208;-67
2022/09/29 00:23:34;;;;;;;11.67;6.03;;;15.90;90.30;;;;;;5022335;28;20195;-68
2022/09/29 00:26:03;;;;;;;10.50;5.97;;;15.90;90.40;;;;;;5025211;28;20885;-67
2022/09/29 00:28:31;;;;;;;12.10;5.87;;;15.80;90.40;;;;;;5016593;28;20203;-67
2022/09/29 00:31:00;;;;;;;10.33;5.67;;;15.80;90.30;;;;;;5016465;28;20647;-67
2022/09/29 00:33:31;;;;;;;8.53;5.53;;;15.70;90.20;;;;;;5020680;28;20212;-67
2022/09/29 00:36:11;;;;;;;10.63;5.33;;;15.70;90.40;;;;;;5020129;28;20265;-67
2022/09/29 00:38:39;;;;;;;9.33;5.87;;;15.70;90.50;;;;;;5022317;28;20536;-67
2022/09/29 00:41:07;;;;;;;8.40;5.33;;;15.60;90.50;;;;;;5016837;28;20210;-67
2022/09/29 00:43:49;;;;;;;9.17;5.03;;;15.60;90.60;;;;;;5020211;28;20287;-67
2022/09/29 00:46:38;;;;;;;9.73;5.83;;;15.60;90.70;;;;;;5019706;28;20215;-67
2022/09/29 00:49:27;;;;;;;10.40;5.93;;;15.60;90.70;;;;;;5017752;28;20214;-67
2022/09/29 00:52:33;;;;;;;10.43;5.83;;;15.60;90.80;;;;;;5014601;28;20200;-67
2022/09/29 00:55:19;;;;;;;7.60;5.70;;;15.60;90.90;;;;;;5027309;28;20206;-67
2022/09/29 00:57:50;;;;;;;8.97;5.90;;;15.60;91.00;;;;;;5022500;28;20254;-67
2022/09/29 01:00:17;;;;;;;8.07;6.17;;;15.60;91.00;;;;;;5018649;28;20203;-67
2022/09/29 01:03:03;;;;;;;10.13;6.57;;;15.70;91.10;;;;;;5022153;28;20215;-67
2022/09/29 01:05:38;;;;;;;9.87;6.23;;;15.70;91.20;;;;;;5021722;28;20203;-67
2022/09/29 01:08:14;;;;;;;9.30;6.67;;;15.70;91.20;;;;;;5025063;28;20207;-67
2022/09/29 01:10:43;;;;;;;7.50;6.53;;;15.70;91.20;;;;;;5019104;28;20272;-67
2022/09/29 01:13:10;;;;;;;9.57;6.10;;;15.70;91.20;;;;;;5021174;28;20203;-67
2022/09/29 01:15:37;;;;;;;7.83;6.33;;;15.70;91.10;;;;;;5023679;28;20598;-68
2022/09/29 01:18:05;;;;;;;7.83;6.53;;;15.70;91.00;;;;;;5022699;28;20260;-67
2022/09/29 01:20:38;;;;;;;12.07;7.13;;;15.70;91.00;;;;;;5022401;28;20698;-67
2022/09/29 01:23:28;;;;;;;14.50;6.70;;;15.60;91.00;;;;;;5024821;28;20596;-67
2022/09/29 01:26:20;;;;;;;9.90;6.47;;;15.60;91.10;;;;;;5023911;28;20218;-67
2022/09/29 01:29:05;;;;;;;11.90;7.67;;;15.60;91.10;;;;;;5023545;28;20264;-67
2022/09/29 01:31:44;;;;;;;9.53;6.73;;;15.70;91.00;;;;;;5025303;28;20195;-67
2022/09/29 01:34:23;;;;;;;11.03;6.67;;;15.60;90.90;;;;;;5024890;28;20207;-67
2022/09/29 01:36:53;;;;;;;9.07;6.73;;;15.60;90.80;;;;;;5024407;28;20222;-67
2022/09/29 01:39:27;;;;;;;9.10;6.33;;;15.60;90.80;;;;;;5025346;28;20199;-67
2022/09/29 01:42:03;;;;;;;10.97;6.57;;;15.60;90.90;;;;;;5039603;28;20273;-67
2022/09/29 01:44:43;;;;;;;7.70;6.53;;;15.60;90.90;;;;;;5041092;28;20616;-67
2022/09/29 01:47:23;;;;;;;9.33;6.83;;;15.60;91.00;;;;;;5024083;28;20199;-67
2022/09/29 01:49:57;;;;;;;12.30;6.90;;;15.60;90.90;;;;;;5020604;28;20208;-67
2022/09/29 01:52:28;;;;;;;11.50;7.30;;;15.60;90.90;;;;;;5020961;28;20206;-67
2022/09/29 01:55:03;;;;;;;9.33;6.67;;;15.60;90.90;;;;;;5025893;28;20207;-67
2022/09/29 01:57:46;;;;;;;9.83;6.53;;;15.70;91.00;;;;;;5011049;28;20223;-67
2022/09/29 02:00:16;;;;;;;12.77;7.17;;;15.70;90.90;;;;;;5022217;28;20659;-67
2022/09/29 02:02:52;;;;;;;12.03;6.90;;;15.60;90.90;;;;;;5017843;28;20763;-67
2022/09/29 02:05:37;;;;;;;8.23;7.30;;;15.60;90.90;;;;;;5025145;28;20249;-67
2022/09/29 02:08:14;;;;;;;12.23;8.07;;;15.60;90.90;;;;;;5020958;28;20216;-67
2022/09/29 02:11:01;;;;;;;10.90;8.33;;;15.60;91.00;;;;;;5031210;28;20220;-67
2022/09/29 02:13:34;;;;;;;10.50;8.40;;;15.60;91.00;;;;;;5023853;28;20696;-67
2022/09/29 02:16:02;;;;;;;9.57;7.37;;;15.60;91.30;;;;;;5027345;28;20208;-67
2022/09/29 02:18:39;;;;;;;9.70;7.60;;;15.60;91.10;;;;;;5021606;28;20222;-67
2022/09/29 02:21:07;;;;;;;9.00;7.43;;;15.60;91.10;;;;;;5023914;28;20206;-67
2022/09/29 02:23:35;;;;;;;11.47;7.40;;;15.60;91.00;;;;;;5020506;28;20200;-67
2022/09/29 02:26:03;;;;;;;11.10;7.90;;;15.60;90.90;;;;;;5023965;28;20645;-67
2022/09/29 02:28:30;;;;;;;9.53;7.00;;;15.60;90.90;;;;;;5022002;28;20639;-67
2022/09/29 02:30:57;;;;;;;12.57;8.07;;;15.60;90.90;;;;;;5018251;28;20270;-67
2022/09/29 02:33:25;;;;;;;10.40;8.93;;;15.50;90.90;;;;;;5022361;28;20637;-67
2022/09/29 02:35:55;;;;;;;12.90;9.17;;;15.50;91.00;;;;;;5019662;28;20253;-67
2022/09/29 02:38:41;;;;;;;11.07;8.37;;;15.50;91.00;;;;;;5022683;28;20570;-67
2022/09/29 02:41:26;;;;;;;9.00;7.87;;;15.50;91.10;;;;;;5024229;28;20235;-67
2022/09/29 02:44:08;;;;;;;13.67;8.53;;;15.50;90.30;;;;;;5021849;28;20210;-67
2022/09/29 02:46:53;;;;;;;13.60;8.43;;;15.40;90.90;;;;;;5021227;28;20487;-67
2022/09/29 02:49:52;;;;;;;13.00;8.53;;;15.20;91.10;;;;;;5024517;28;20405;-67
2022/09/29 02:52:43;;;;;;;12.30;8.63;;;15.20;91.40;;;;;;5023288;28;20241;-67
2022/09/29 02:55:56;;;;;;;13.33;8.00;;;15.20;91.60;;;;;;5021853;28;20644;-67
2022/09/29 02:58:31;;;;;;;12.90;9.40;;;15.20;91.80;;;;;;5018134;28;20230;-67
2022/09/29 03:00:59;;;;;;;19.03;9.93;;;15.10;91.80;;;;;;5021318;28;20199;-67
2022/09/29 03:03:26;;;;;;;15.07;10.80;;;15.10;91.90;;;;;;5023212;28;20206;-67
2022/09/29 03:05:53;;;;;;;15.37;10.67;;;15.10;91.80;;;;;;5027095;28;20206;-67
2022/09/29 03:08:20;;;;;;;12.23;10.07;;;15.00;91.80;;;;;;5023886;28;20261;-67
2022/09/29 03:10:48;;;;;;;13.37;10.07;;;15.00;91.80;;;;;;5020065;28;20212;-67
2022/09/29 03:13:15;;;;;;;12.27;9.13;;;15.00;91.90;;;;;;5021991;28;20222;-67
2022/09/29 03:15:42;;;;;;;12.37;10.37;;;15.00;92.10;;;;;;5026669;28;20210;-68
2022/09/29 03:18:09;;;;;;;12.87;10.00;;;15.00;92.40;;;;;;5018925;28;20231;-68
2022/09/29 03:20:36;;;;;;;13.03;10.00;;;14.90;92.00;;;;;;5022635;28;20239;-67
2022/09/29 03:23:03;;;;;;;13.17;9.43;;;15.00;92.10;;;;;;5020941;28;20605;-67
2022/09/29 03:25:30;;;;;;;11.10;9.83;;;14.90;92.00;;;;;;5027553;28;20203;-67
2022/09/29 03:27:57;;;;;;;12.23;10.63;;;14.90;91.90;;;;;;5017919;28;20208;-67
2022/09/29 03:30:24;;;;;;;12.10;10.03;;;14.90;91.90;;;;;;5025597;28;20543;-67
2022/09/29 03:32:51;;;;;;;13.73;9.57;;;14.90;91.90;;;;;;5024018;28;20275;-67
2022/09/29 03:35:18;;;;;;;13.13;9.63;;;14.90;91.90;;;;;;5023090;28;20540;-67
2022/09/29 03:37:45;;;;;;;12.43;9.93;;;14.80;91.80;;;;;;5016701;28;20227;-67
2022/09/29 03:40:12;;;;;;;12.47;9.80;;;14.90;91.70;;;;;;5015288;28;20226;-67
2022/09/29 03:42:39;;;;;;;13.93;10.13;;;14.90;91.80;;;;;;5025984;28;20198;-67
2022/09/29 03:45:07;;;;;;;11.37;9.63;;;14.90;91.80;;;;;;5021872;28;20249;-67
2022/09/29 03:47:34;;;;;;;15.77;10.77;;;14.90;91.80;;;;;;5023446;28;20266;-66
2022/09/29 03:50:01;;;;;;;11.83;9.77;;;14.90;91.80;;;;;;5019366;28;20212;-66
2022/09/29 03:52:28;;;;;;;15.93;9.70;;;14.90;91.80;;;;;;5018034;28;20215;-66
2022/09/29 03:54:55;;;;;;;11.90;9.70;;;14.90;91.80;;;;;;5020033;28;20271;-67
2022/09/29 03:57:22;;;;;;;16.63;9.97;;;14.90;91.70;;;;;;5019560;28;20249;-67
2022/09/29 03:59:49;;;;;;;14.53;9.90;;;14.90;91.70;;;;;;5020952;28;20713;-66
2022/09/29 04:02:19;;;;;;;14.83;9.07;;;14.90;91.70;;;;;;5023192;28;20664;-66
2022/09/29 04:04:46;;;;;;;11.07;9.63;;;14.90;91.80;;;;;;5011779;28;20208;-66
2022/09/29 04:07:13;;;;;;;11.40;9.87;;;14.90;91.80;;;;;;5021559;28;20214;-66
2022/09/29 04:09:40;;;;;;;19.37;10.40;;;14.90;91.90;;;;;;5023179;28;20236;-66
2022/09/29 04:12:07;;;;;;;14.47;10.53;;;14.90;92.00;;;;;;5017186;28;20243;-66
2022/09/29 04:14:34;;;;;;;12.97;11.17;;;14.90;91.90;;;;;;5022039;28;20242;-66
2022/09/29 04:17:01;;;;;;;12.57;9.63;;;14.90;92.00;;;;;;5019765;28;20216;-66
2022/09/29 04:19:28;;;;;;;13.43;9.90;;;14.90;92.00;;;;;;5017962;28;20312;-66
2022/09/29 04:21:55;;;;;;;12.87;10.13;;;14.80;92.00;;;;;;5018390;28;20204;-66
2022/09/29 04:24:22;;;;;;;12.47;10.20;;;14.80;92.30;;;;;;5001649;28;20497;-66
2022/09/29 04:26:49;;;;;;;14.97;9.90;;;14.80;92.10;;;;;;5023153;28;20203;-66
2022/09/29 04:29:16;;;;;;;10.70;9.03;;;14.80;92.10;;;;;;5015046;28;20261;-66
2022/09/29 04:31:43;;;;;;;12.13;9.30;;;14.80;92.10;;;;;;5017240;28;20364;-66
2022/09/29 04:34:10;;;;;;;12.20;9.43;;;14.80;92.10;;;;;;5016414;28;20222;-66
2022/09/29 04:36:38;;;;;;;10.63;9.53;;;14.80;92.00;;;;;;5019443;28;20203;-66
2022/09/29 04:39:05;;;;;;;15.40;9.43;;;14.80;92.00;;;;;;5023945;28;20300;-66
2022/09/29 04:41:34;;;;;;;12.30;9.77;;;14.70;92.00;;;;;;5016180;28;20283;-66
2022/09/29 04:44:01;;;;;;;11.13;9.53;;;14.70;91.90;;;;;;5016431;28;20270;-66
2022/09/29 04:46:28;;;;;;;11.33;9.47;;;14.70;92.00;;;;;;5024434;28;20200;-66
2022/09/29 04:48:55;;;;;;;18.13;11.20;;;14.70;92.00;;;;;;5009217;28;20606;-67
2022/09/29 04:51:22;;;;;;;13.23;9.73;;;14.70;92.00;;;;;;5020917;28;20668;-67
2022/09/29 04:53:51;;;;;;;16.23;10.27;;;14.70;92.00;;;;;;5015526;28;20202;-66
2022/09/29 04:56:18;;;;;;;13.53;9.90;;;14.60;91.90;;;;;;5017500;28;20685;-66
2022/09/29 04:58:45;;;;;;;13.73;10.03;;;14.60;92.00;;;;;;5021386;28;20234;-66
2022/09/29 05:01:12;;;;;;;12.07;9.47;;;14.60;92.00;;;;;;5018020;28;20227;-67
2022/09/29 05:03:40;;;;;;;12.03;9.47;;;14.60;92.00;;;;;;5017599;28;20201;-67
2022/09/29 05:06:09;;;;;;;15.27;10.03;;;14.50;92.00;;;;;;5023500;28;20265;-67
2022/09/29 05:08:36;;;;;;;12.13;9.87;;;14.50;92.00;;;;;;5020372;28;20210;-67
2022/09/29 05:11:07;;;;;;;17.33;9.90;;;14.50;92.00;;;;;;5021462;28;20218;-67
2022/09/29 05:13:34;;;;;;;15.40;10.33;;;14.50;92.00;;;;;;5014521;28;20289;-67
2022/09/29 05:16:02;;;;;;;11.73;10.13;;;14.40;92.00;;;;;;5019751;28;20664;-67
2022/09/29 05:18:30;;;;;;;11.83;10.47;;;14.40;92.00;;;;;;5022704;28;20234;-67
2022/09/29 05:21:03;;;;;;;14.03;9.83;;;14.50;92.10;;;;;;5021007;28;20244;-67
2022/09/29 05:23:50;;;;;;;16.70;11.60;;;14.40;92.10;;;;;;5014177;28;20217;-67
2022/09/29 05:26:17;;;;;;;12.47;9.70;;;14.40;92.10;;;;;;5017619;28;20219;-67
2022/09/29 05:28:46;;;;;;;12.93;9.87;;;14.40;92.10;;;;;;5004205;28;20268;-67
2022/09/29 05:31:14;;;;;;;14.07;11.03;;;14.40;92.20;;;;;;5017334;28;20203;-67
2022/09/29 05:33:41;;;;;;;15.27;11.07;;;14.40;92.20;;;;;;5019162;28;20212;-67
2022/09/29 05:36:10;;;;;;;15.93;10.67;;;14.30;92.20;;;;;;5014692;28;20218;-67
2022/09/29 05:38:38;;;;;;;14.67;11.17;;;14.40;92.30;;;;;;5017910;28;20604;-67
2022/09/29 05:41:07;;;;;;;15.53;10.80;;;14.40;92.20;;;;;;5018581;28;20282;-67
2022/09/29 05:43:34;;;;;;;18.00;11.33;;;14.40;92.30;;;;;;5022554;28;20665;-67
2022/09/29 05:46:06;;;;;;;13.60;9.97;;;14.50;92.20;;;;;;5028114;28;20595;-67
2022/09/29 05:48:33;;;;;;;17.57;11.07;;;14.50;91.90;;;;;;5019151;28;20222;-67
2022/09/29 05:51:10;;;;;;;15.90;11.43;;;14.50;91.80;;;;;;5026299;28;20297;-67
2022/09/29 05:53:38;;;;;;;14.10;10.23;;;14.50;92.00;;;;;;5020869;28;20212;-67
2022/09/29 05:56:10;;;;;;;14.43;11.03;;;14.50;92.10;;;;;;5024762;28;20208;-67
2022/09/29 05:58:38;;;;;;;19.77;11.57;;;14.60;92.30;;;;;;5026076;28;20736;-67
2022/09/29 06:01:14;;;;;;;16.33;11.47;;;14.70;92.30;;;;;;5028353;28;20633;-67
2022/09/29 06:03:41;;;;;;;17.10;14.07;;;14.70;92.40;;;;;;5031713;28;20677;-67
2022/09/29 06:06:15;;;;;;;17.10;12.17;;;14.80;92.30;;;;;;5019735;28;20200;-67
2022/09/29 06:08:43;;;;;;;21.13;13.87;;;14.80;92.40;;;;;;5018898;28;20234;-67
2022/09/29 06:11:18;;;;;;;13.27;11.47;;;14.90;92.60;;;;;;5024495;28;20419;-67
2022/09/29 06:13:48;;;;;;;18.13;12.43;;;14.90;92.80;;;;;;5024131;28;20210;-67
2022/09/29 06:16:17;;;;;;;14.77;12.47;;;15.10;92.80;;;;;;5020652;28;20628;-67
2022/09/29 06:18:44;;;;;;;21.37;12.97;;;15.20;92.90;;;;;;5022693;28;20231;-67
2022/09/29 06:21:15;;;;;;;18.33;13.27;;;15.30;92.90;;;;;;5021376;28;20274;-67
2022/09/29 06:23:43;;;;;;;16.10;13.20;;;15.40;92.80;;;;;;5022516;28;20237;-67
2022/09/29 06:26:12;;;;;;;17.40;11.83;;;15.50;92.60;;;;;;5019348;28;20195;-67
2022/09/29 06:28:40;;;;;;;19.60;12.63;;;15.50;92.40;;;;;;5025852;28;20635;-67
2022/09/29 06:31:12;;;;;;;20.50;13.47;;;15.50;92.30;;;;;;5019141;28;20517;-67
2022/09/29 06:33:40;;;;;;;19.07;13.77;;;15.50;92.30;;;;;;5023442;28;20227;-67
2022/09/29 06:39:00;;;;;;;19.87;14.53;;;15.60;92.50;;;;;;5021508;28;20285;-67
2022/09/29 06:41:28;;;;;;;20.77;15.20;;;15.70;92.60;;;;;;5022162;28;20266;-67
2022/09/29 06:43:55;;;;;;;16.87;15.07;;;15.80;92.60;;;;;;5023867;28;20238;-67
2022/09/29 06:46:23;;;;;;;17.53;14.67;;;15.80;92.60;;;;;;5020730;28;20643;-67
2022/09/29 06:48:50;;;;;;;23.03;16.33;;;15.90;92.60;;;;;;5018563;28;20212;-67
2022/09/29 06:51:17;;;;;;;19.77;16.37;;;16.00;92.60;;;;;;5025941;28;20211;-67
2022/09/29 06:53:45;;;;;;;22.43;15.70;;;16.10;92.70;;;;;;5022245;28;20230;-67
2022/09/29 06:56:12;;;;;;;23.23;16.70;;;16.20;92.70;;;;;;5023562;28;20215;-67
2022/09/29 06:58:39;;;;;;;20.93;16.47;;;16.30;92.80;;;;;;5017037;28;20624;-67
2022/09/29 07:01:06;;;;;;;19.13;15.27;;;16.40;92.80;;;;;;5019332;28;20203;-67
2022/09/29 07:03:36;;;;;;;20.47;15.40;;;16.50;92.80;;;;;;5020424;28;20630;-67
2022/09/29 07:06:08;;;;;;;21.70;14.83;;;16.60;92.80;;;;;;5019434;28;20204;-67
2022/09/29 07:08:47;;;;;;;18.53;13.97;;;16.60;92.80;;;;;;5023813;28;20208;-67
2022/09/29 07:11:15;;;;;;;18.30;14.10;;;16.70;92.80;;;;;;5020399;28;20230;-67
2022/09/29 07:13:42;;;;;;;21.37;14.47;;;16.90;92.80;;;;;;5020467;28;20207;-67
2022/09/29 07:16:11;;;;;;;20.57;14.90;;;17.00;92.70;;;;;;5020829;28;20210;-67
2022/09/29 07:18:40;;;;;;;21.30;13.83;;;17.10;92.80;;;;;;5020449;28;20326;-67
2022/09/29 07:21:10;;;;;;;20.63;12.97;;;17.20;92.70;;;;;;5029160;28;20211;-67
2022/09/29 07:23:38;;;;;;;20.97;12.90;;;17.30;92.50;;;;;;5020686;28;20196;-67
2022/09/29 07:26:06;;;;;;;17.20;12.90;;;17.40;92.40;;;;;;5020581;28;20231;-67
2022/09/29 07:28:33;;;;;;;21.57;13.57;;;17.50;92.30;;;;;;5019611;28;20211;-67
2022/09/29 07:31:05;;;;;;;19.87;13.60;;;17.50;92.10;;;;;;5020676;28;20262;-67
2022/09/29 07:33:41;;;;;;;24.37;15.67;;;17.60;92.00;;;;;;5022281;28;20205;-67
2022/09/29 07:36:08;;;;;;;27.40;18.27;;;17.60;92.00;;;;;;5025360;28;20236;-67
2022/09/29 07:38:35;;;;;;;30.47;18.87;;;17.70;92.10;;;;;;5021726;28;20304;-67
2022/09/29 07:41:05;;;;;;;21.77;14.87;;;17.90;92.20;;;;;;5009929;28;20645;-67
2022/09/29 07:43:32;;;;;;;18.80;14.87;;;18.20;92.20;;;;;;5018617;28;20205;-68
2022/09/29 07:46:00;;;;;;;20.83;14.67;;;18.40;91.50;;;;;;5024383;28;20231;-68
2022/09/29 07:48:29;;;;;;;16.00;13.27;;;18.60;91.10;;;;;;5017441;28;20439;-68
2022/09/29 07:51:02;;;;;;;21.90;13.47;;;18.80;90.70;;;;;;5007411;28;20217;-68
2022/09/29 07:53:30;;;;;;;21.03;13.97;;;19.00;90.10;;;;;;5028957;28;20205;-68
2022/09/29 07:56:07;;;;;;;15.50;12.70;;;19.20;90.10;;;;;;5019737;28;20212;-68
2022/09/29 07:58:34;;;;;;;17.97;12.60;;;19.40;89.90;;;;;;5020796;28;20677;-68
2022/09/29 08:01:05;;;;;;;16.13;11.43;;;19.60;89.20;;;;;;5016580;28;20225;-67
2022/09/29 08:03:32;;;;;;;19.90;11.17;;;19.80;88.60;;;;;;5016324;28;20277;-67
2022/09/29 08:05:59;;;;;;;17.30;11.57;;;20.10;87.60;;;;;;5020059;28;20230;-67
2022/09/29 08:08:26;;;;;;;18.77;11.93;;;20.40;86.50;;;;;;5020199;28;20198;-67
2022/09/29 08:11:08;;;;;;;18.33;11.63;;;20.60;85.20;;;;;;5016532;28;20206;-67
2022/09/29 08:13:42;;;;;;;18.27;11.70;;;20.80;83.10;;;;;;5017455;28;20268;-67
2022/09/29 08:16:13;;;;;;;17.60;11.93;;;21.00;80.70;;;;;;5026315;28;20219;-67
2022/09/29 08:18:41;;;;;;;16.03;11.87;;;21.00;80.60;;;;;;5019661;28;20618;-67
2022/09/29 08:21:10;;;;;;;16.57;11.57;;;21.10;80.40;;;;;;5019734;28;20208;-67
2022/09/29 08:23:39;;;;;;;18.50;11.93;;;21.20;80.50;;;;;;5015734;28;20334;-68
2022/09/29 08:26:21;;;;;;;15.17;10.03;;;21.30;79.10;;;;;;5019842;28;20242;-67
2022/09/29 08:29:07;;;;;;;18.57;11.17;;;21.30;79.00;;;;;;5015073;28;20298;-67
2022/09/29 08:31:36;;;;;;;16.10;10.47;;;21.40;79.00;;;;;;5025245;28;20199;-67
2022/09/29 08:34:05;;;;;;;15.20;10.50;;;21.60;78.90;;;;;;5015984;28;20200;-68
2022/09/29 08:36:32;;;;;;;13.50;8.97;;;21.70;78.90;;;;;;5018138;28;20279;-68
2022/09/29 08:38:59;;;;;;;11.47;8.50;;;21.90;77.90;;;;;;5024322;28;20230;-68
2022/09/29 08:41:52;;;;;;;16.47;9.03;;;22.00;76.80;;;;;;5027055;28;20681;-68
2022/09/29 08:44:33;;;;;;;12.53;7.73;;;22.10;75.80;;;;;;5019897;28;20524;-68
2022/09/29 08:47:16;;;;;;;15.60;7.40;;;22.20;75.40;;;;;;5018435;28;20227;-67
2022/09/29 08:49:51;;;;;;;16.43;7.33;;;22.20;75.20;;;;;;5019112;28;20207;-68
2022/09/29 08:52:23;;;;;;;13.73;7.40;;;22.10;74.90;;;;;;5019661;28;20580;-68
2022/09/29 08:54:58;;;;;;;13.07;7.57;;;22.00;74.80;;;;;;5016913;28;20234;-68
2022/09/29 08:57:26;;;;;;;10.60;7.23;;;21.90;75.30;;;;;;5018190;28;20203;-68
2022/09/29 08:59:56;;;;;;;12.37;7.30;;;21.90;75.50;;;;;;5019489;28;20298;-68
2022/09/29 09:02:38;;;;;;;11.53;6.80;;;21.80;75.70;;;;;;5020474;28;20768;-68
2022/09/29 09:05:24;;;;;;;12.77;7.57;;;21.80;75.70;;;;;;5016833;28;20547;-68
2022/09/29 09:08:35;;;;;;;11.47;7.50;;;21.70;76.10;;;;;;5029417;28;20204;-68
2022/09/29 09:11:23;;;;;;;10.93;6.80;;;21.70;76.20;;;;;;5018827;28;20210;-68
2022/09/29 09:14:13;;;;;;;11.87;6.70;;;21.70;76.20;;;;;;5016472;28;20212;-68
2022/09/29 09:16:52;;;;;;;13.97;6.90;;;21.70;75.50;;;;;;5018967;28;20706;-68
2022/09/29 09:19:49;;;;;;;11.60;6.87;;;21.70;74.80;;;;;;5026879;28;20274;-68
2022/09/29 09:22:28;;;;;;;11.03;6.40;;;21.70;74.30;;;;;;5021066;28;20203;-68
2022/09/29 09:25:10;;;;;;;11.77;6.43;;;21.70;74.20;;;;;;5025666;28;20820;-68
2022/09/29 09:27:42;;;;;;;7.37;5.83;;;21.70;74.20;;;;;;5018934;28;20690;-68
2022/09/29 09:30:15;;;;;;;10.93;6.63;;;21.80;74.40;;;;;;5006135;28;20266;-68
2022/09/29 09:32:59;;;;;;;12.20;7.67;;;21.90;74.70;;;;;;5019966;28;20242;-68
2022/09/29 09:35:33;;;;;;;12.03;6.20;;;21.90;74.50;;;;;;5021275;28;20242;-68
2022/09/29 09:38:11;;;;;;;12.23;7.27;;;22.00;74.20;;;;;;5023504;28;20211;-68
2022/09/29 09:40:44;;;;;;;12.37;6.40;;;22.10;73.70;;;;;;5019256;28;20234;-67
2022/09/29 09:43:32;;;;;;;12.03;6.07;;;22.20;73.20;;;;;;5022518;28;20291;-68
2022/09/29 09:46:07;;;;;;;10.53;6.13;;;22.20;73.10;;;;;;5025210;28;20212;-68
2022/09/29 09:49:03;;;;;;;10.07;5.87;;;22.30;73.00;;;;;;5019966;28;20661;-68
2022/09/29 09:51:53;;;;;;;10.73;5.17;;;22.40;72.20;;;;;;5022501;28;20207;-68
2022/09/29 09:54:35;;;;;;;9.43;5.53;;;22.50;72.10;;;;;;5022853;28;20212;-68
2022/09/29 09:57:17;;;;;;;8.37;5.13;;;22.60;72.30;;;;;;5019293;28;20719;-68
2022/09/29 09:59:47;;;;;;;10.17;3.93;;;22.70;72.30;;;;;;5030913;28;20211;-68
2022/09/29 10:02:20;;;;;;;7.00;3.80;;;22.80;71.80;;;;;;5026065;28;20272;-68
2022/09/29 10:04:52;;;;;;;8.50;4.00;;;22.80;71.20;;;;;;5017503;28;20208;-67
2022/09/29 10:07:21;;;;;;;10.43;4.20;;;22.90;71.00;;;;;;5023283;28;20672;-68
2022/09/29 10:09:49;;;;;;;6.73;3.40;;;23.00;70.70;;;;;;5016633;28;20273;-68
2022/09/29 10:12:22;;;;;;;8.17;3.60;;;23.00;70.30;;;;;;5022060;28;20260;-68
2022/09/29 10:14:58;;;;;;;9.80;3.73;;;23.00;70.10;;;;;;5023891;28;20589;-68
2022/09/29 10:17:30;;;;;;;7.77;3.50;;;23.10;70.00;;;;;;5028809;28;20458;-68
2022/09/29 10:20:05;;;;;;;4.30;2.10;;;23.20;70.00;;;;;;5017281;28;20244;-68
2022/09/29 10:22:34;;;;;;;7.50;1.73;;;23.40;68.90;;;;;;5030064;28;20207;-68
2022/09/29 10:25:18;;;;;;;3.97;1.70;;;23.60;67.90;;;;;;5021545;28;20223;-68
2022/09/29 10:27:52;;;;;;;4.93;1.90;;;23.80;65.80;;;;;;5029396;28;20465;-67
2022/09/29 10:30:31;;;;;;;7.80;1.67;;;24.00;64.60;;;;;;5021906;28;20232;-67
2022/09/29 10:33:01;;;;;;;4.93;1.90;;;24.20;63.80;;;;;;5023902;28;20206;-67
2022/09/29 10:35:37;;;;;;;4.93;1.67;;;24.40;62.80;;;;;;5021397;28;20693;-68
2022/09/29 10:38:22;;;;;;;7.23;1.90;;;24.50;61.70;;;;;;5019498;28;20258;-67
2022/09/29 10:40:57;;;;;;;3.63;1.50;;;24.80;61.30;;;;;;5016542;28;20215;-68
2022/09/29 10:43:31;;;;;;;9.30;1.67;;;25.00;60.70;;;;;;5027531;28;20204;-67
2022/09/29 10:45:58;;;;;;;6.17;1.77;;;25.20;59.90;;;;;;5027282;28;20237;-68
2022/09/29 10:48:26;;;;;;;4.63;1.43;;;25.30;58.60;;;;;;5020485;28;20212;-67
2022/09/29 10:51:04;;;;;;;7.57;1.40;;;25.40;58.90;;;;;;5022609;28;20289;-67
2022/09/29 10:53:35;;;;;;;5.10;1.80;;;25.50;57.90;;;;;;5022369;28;20587;-67
2022/09/29 10:56:23;;;;;;;2.17;0.83;;;25.60;57.50;;;;;;5023732;28;20624;-68
2022/09/29 10:58:59;;;;;;;2.63;1.30;;;25.80;57.10;;;;;;5025854;28;20281;-68
2022/09/29 11:01:41;;;;;;;5.37;1.17;;;25.80;54.90;;;;;;5023654;28;20206;-67
2022/09/29 11:04:22;;;;;;;3.67;1.10;;;25.90;55.10;;;;;;5033008;28;20214;-68
2022/09/29 11:06:50;;;;;;;4.70;1.27;;;26.10;54.10;;;;;;5023486;28;20255;-67
2022/09/29 11:09:28;;;;;;;3.07;1.27;;;26.20;53.50;;;;;;5018102;28;20258;-67
2022/09/29 11:11:57;;;;;;;3.20;1.03;;;26.20;51.30;;;;;;5027393;28;20219;-67
2022/09/29 11:14:29;;;;;;;3.00;1.20;;;26.20;51.90;;;;;;5018273;28;20673;-67
2022/09/29 11:16:59;;;;;;;3.70;1.37;;;26.30;52.00;;;;;;5025851;28;20261;-67
2022/09/29 11:19:29;;;;;;;3.67;1.43;;;26.30;52.60;;;;;;5017633;28;20246;-67
2022/09/29 11:22:25;;;;;;;3.73;1.33;;;26.30;52.20;;;;;;5026644;28;20203;-67
2022/09/29 11:24:55;;;;;;;4.67;1.20;;;26.40;51.90;;;;;;5010851;28;20213;-67
2022/09/29 11:27:50;;;;;;;3.67;0.97;;;26.40;52.10;;;;;;5019706;28;20695;-67
2022/09/29 11:30:21;;;;;;;2.63;1.00;;;26.50;51.60;;;;;;5021485;28;20214;-68
2022/09/29 11:33:04;;;;;;;2.90;1.20;;;26.50;52.10;;;;;;5018028;28;20243;-67
2022/09/29 11:35:56;;;;;;;3.77;1.20;;;26.50;50.50;;;;;;5020867;28;20283;-67
2022/09/29 11:38:37;;;;;;;3.43;1.03;;;26.60;50.30;;;;;;5019621;28;20590;-66
2022/09/29 11:41:26;;;;;;;3.07;0.73;;;26.70;49.80;;;;;;5023149;28;20704;-67
2022/09/29 11:43:59;;;;;;;5.73;1.33;;;26.80;50.10;;;;;;5017053;28;20234;-67
2022/09/29 11:47:01;;;;;;;4.40;1.20;;;26.80;49.50;;;;;;5026782;28;20636;-67
2022/09/29 11:49:55;;;;;;;4.73;1.27;;;26.90;49.90;;;;;;5024541;28;20674;-67
2022/09/29 11:52:22;;;;;;;3.77;1.50;;;27.00;49.70;;;;;;5025732;28;20297;-67
2022/09/29 11:55:10;;;;;;;2.47;0.90;;;27.10;48.00;;;;;;5023548;28;20204;-67
2022/09/29 11:58:01;;;;;;;4.73;1.53;;;27.00;47.50;;;;;;5021241;28;20324;-67
2022/09/29 12:00:43;;;;;;;1.97;0.90;;;27.00;48.10;;;;;;5019586;28;20288;-67
2022/09/29 12:03:51;;;;;;;4.97;1.20;;;27.10;47.30;;;;;;5018473;28;20719;-67
2022/09/29 12:06:50;;;;;;;3.67;1.17;;;27.00;47.70;;;;;;5015192;28;20205;-67
2022/09/29 12:09:20;;;;;;;4.00;0.90;;;27.20;48.20;;;;;;5024174;28;20279;-66
2022/09/29 12:12:12;;;;;;;3.40;0.63;;;27.30;47.60;;;;;;5018870;28;20241;-67
2022/09/29 12:15:13;;;;;;;3.07;1.20;;;27.40;47.00;;;;;;5017614;28;20215;-67
2022/09/29 12:17:51;;;;;;;2.40;0.90;;;27.30;47.00;;;;;;5021560;28;20261;-67
2022/09/29 12:20:33;;;;;;;2.17;1.00;;;27.20;47.00;;;;;;5018619;28;20305;-67
2022/09/29 12:23:04;;;;;;;1.93;0.83;;;27.20;46.20;;;;;;5019438;28;20212;-67
2022/09/29 12:25:36;;;;;;;4.20;1.07;;;27.20;46.60;;;;;;5014527;28;20278;-67
2022/09/29 12:28:13;;;;;;;3.10;1.07;;;27.30;47.00;;;;;;5017967;28;20586;-67
2022/09/29 12:30:44;;;;;;;2.97;1.00;;;27.40;46.00;;;;;;5025921;28;20199;-67
2022/09/29 12:33:22;;;;;;;2.40;0.80;;;27.30;45.70;;;;;;5020706;28;20273;-67
2022/09/29 12:36:42;;;;;;;3.50;0.77;;;27.10;46.60;;;;;;5015694;28;20592;-67
2022/09/29 12:39:03;;;;;;;3.73;1.00;;;27.00;47.00;;;;;;5020836;28;20207;-67
2022/09/29 12:41:41;;;;;;;4.53;1.03;;;26.90;47.20;;;;;;5019757;28;20208;-67
2022/09/29 12:44:24;;;;;;;6.10;1.13;;;26.80;47.20;;;;;;5022239;28;20199;-67
2022/09/29 12:47:19;;;;;;;2.33;0.87;;;26.80;47.80;;;;;;5022442;28;20265;-67
2022/09/29 12:50:13;;;;;;;2.13;0.77;;;26.90;46.70;;;;;;5017522;28;20604;-67
2022/09/29 12:52:59;;;;;;;3.07;1.37;;;26.90;46.60;;;;;;5024981;28;20615;-67
2022/09/29 12:55:53;;;;;;;3.00;1.00;;;26.90;46.70;;;;;;5023562;28;20203;-67
2022/09/29 12:58:46;;;;;;;2.17;1.10;;;27.00;47.00;;;;;;5017422;28;20281;-67
2022/09/29 13:01:27;;;;;;;1.73;0.90;;;27.00;47.20;;;;;;5023567;28;20218;-67
2022/09/29 13:04:03;;;;;;;2.87;0.80;;;26.90;47.40;;;;;;5022578;28;20213;-66
2022/09/29 13:06:32;;;;;;;2.00;0.93;;;26.80;47.60;;;;;;5020496;28;20242;-66
2022/09/29 13:09:18;;;;;;;1.77;0.73;;;26.60;46.90;;;;;;5022572;28;20207;-66
2022/09/29 13:11:59;;;;;;;2.80;1.00;;;26.50;47.10;;;;;;5022522;28;20207;-66
2022/09/29 13:15:05;;;;;;;2.87;0.97;;;26.30;47.60;;;;;;5023180;28;20256;-66
2022/09/29 13:17:37;;;;;;;3.70;1.40;;;26.10;47.90;;;;;;5023130;28;20218;-66